sensor_id;sensor_type;location;lat;lon;timestamp;P1;durP1;ratioP1;P2;durP2;ratioP2
66593;SDS011;53450;42.584;23.366;2023-09-07T00:00:39;12.77;;;9.85;;
66593;SDS011;53450;42.584;23.366;2023-09-07T00:03:05;16.38;;;10.10;;
66593;SDS011;53450;42.584;23.366;2023-09-07T00:05:31;18.88;;;9.65;;
66593;SDS011;53450;42.584;23.366;2023-09-07T00:07:59;13.82;;;9.65;;
66593;SDS011;53450;42.584;23.366;2023-09-07T00:10:25;17.45;;;9.80;;
66593;SDS011;53450;42.584;23.366;2023-09-07T00:12:51;16.08;;;9.65;;
66593;SDS011;53450;42.584;23.366;2023-09-07T00:15:17;13.32;;;9.88;;
66593;SDS011;53450;42.584;23.366;2023-09-07T00:17:46;12.07;;;10.30;;
66593;SDS011;53450;42.584;23.366;2023-09-07T00:20:12;12.32;;;10.40;;
66593;SDS011;53450;42.584;23.366;2023-09-07T00:22:40;14.65;;;10.90;;
66593;SDS011;53450;42.584;23.366;2023-09-07T00:25:06;12.48;;;10.35;;
66593;SDS011;53450;42.584;23.366;2023-09-07T00:27:34;18.23;;;11.48;;
66593;SDS011;53450;42.584;23.366;2023-09-07T00:30:00;13.50;;;10.90;;
66593;SDS011;53450;42.584;23.366;2023-09-07T00:32:27;14.68;;;11.63;;
66593;SDS011;53450;42.584;23.366;2023-09-07T00:35:18;26.77;;;13.10;;
66593;SDS011;53450;42.584;23.366;2023-09-07T00:38:09;20.77;;;13.25;;
66593;SDS011;53450;42.584;23.366;2023-09-07T00:40:36;19.23;;;12.55;;
66593;SDS011;53450;42.584;23.366;2023-09-07T00:43:02;18.33;;;13.48;;
66593;SDS011;53450;42.584;23.366;2023-09-07T00:45:30;17.52;;;13.48;;
66593;SDS011;53450;42.584;23.366;2023-09-07T00:47:56;20.70;;;14.02;;
66593;SDS011;53450;42.584;23.366;2023-09-07T00:50:23;15.43;;;13.93;;
66593;SDS011;53450;42.584;23.366;2023-09-07T00:52:49;17.95;;;14.75;;
66593;SDS011;53450;42.584;23.366;2023-09-07T00:55:15;20.73;;;14.98;;
66593;SDS011;53450;42.584;23.366;2023-09-07T00:57:40;17.33;;;14.23;;
66593;SDS011;53450;42.584;23.366;2023-09-07T01:00:08;20.17;;;15.70;;
66593;SDS011;53450;42.584;23.366;2023-09-07T01:02:34;19.77;;;16.45;;
66593;SDS011;53450;42.584;23.366;2023-09-07T01:05:07;19.88;;;15.13;;
66593;SDS011;53450;42.584;23.366;2023-09-07T01:08:07;27.52;;;16.17;;
66593;SDS011;53450;42.584;23.366;2023-09-07T01:11:12;21.92;;;17.60;;
66593;SDS011;53450;42.584;23.366;2023-09-07T01:13:42;24.00;;;18.13;;
66593;SDS011;53450;42.584;23.366;2023-09-07T01:16:08;26.58;;;19.73;;
66593;SDS011;53450;42.584;23.366;2023-09-07T01:18:38;24.50;;;19.55;;
66593;SDS011;53450;42.584;23.366;2023-09-07T01:21:07;28.52;;;19.77;;
66593;SDS011;53450;42.584;23.366;2023-09-07T01:23:37;29.58;;;20.65;;
66593;SDS011;53450;42.584;23.366;2023-09-07T01:26:06;26.75;;;20.88;;
66593;SDS011;53450;42.584;23.366;2023-09-07T01:28:37;23.77;;;19.48;;
66593;SDS011;53450;42.584;23.366;2023-09-07T01:31:04;25.88;;;18.58;;
66593;SDS011;53450;42.584;23.366;2023-09-07T01:33:30;25.60;;;18.45;;
66593;SDS011;53450;42.584;23.366;2023-09-07T01:36:21;25.75;;;18.90;;
66593;SDS011;53450;42.584;23.366;2023-09-07T01:39:12;26.35;;;18.33;;
66593;SDS011;53450;42.584;23.366;2023-09-07T01:41:38;27.77;;;18.20;;
66593;SDS011;53450;42.584;23.366;2023-09-07T01:44:07;24.90;;;18.63;;
66593;SDS011;53450;42.584;23.366;2023-09-07T01:46:32;21.67;;;16.63;;
66593;SDS011;53450;42.584;23.366;2023-09-07T01:48:58;24.23;;;17.13;;
66593;SDS011;53450;42.584;23.366;2023-09-07T01:51:24;22.30;;;16.30;;
66593;SDS011;53450;42.584;23.366;2023-09-07T01:53:53;27.33;;;16.73;;
66593;SDS011;53450;42.584;23.366;2023-09-07T01:56:19;32.53;;;17.08;;
66593;SDS011;53450;42.584;23.366;2023-09-07T01:58:45;20.70;;;16.83;;
66593;SDS011;53450;42.584;23.366;2023-09-07T02:01:27;19.05;;;17.05;;
66593;SDS011;53450;42.584;23.366;2023-09-07T02:03:55;24.08;;;17.70;;
66593;SDS011;53450;42.584;23.366;2023-09-07T02:06:21;21.80;;;17.42;;
66593;SDS011;53450;42.584;23.366;2023-09-07T02:09:12;18.33;;;16.27;;
66593;SDS011;53450;42.584;23.366;2023-09-07T02:11:39;23.38;;;16.92;;
66593;SDS011;53450;42.584;23.366;2023-09-07T02:14:05;23.77;;;17.70;;
66593;SDS011;53450;42.584;23.366;2023-09-07T02:16:31;25.17;;;16.90;;
66593;SDS011;53450;42.584;23.366;2023-09-07T02:19:01;22.58;;;16.58;;
66593;SDS011;53450;42.584;23.366;2023-09-07T02:21:53;19.42;;;15.18;;
66593;SDS011;53450;42.584;23.366;2023-09-07T02:24:19;23.77;;;16.73;;
66593;SDS011;53450;42.584;23.366;2023-09-07T02:26:45;20.90;;;16.00;;
66593;SDS011;53450;42.584;23.366;2023-09-07T02:29:14;16.00;;;12.90;;
66593;SDS011;53450;42.584;23.366;2023-09-07T02:31:40;17.50;;;13.82;;
66593;SDS011;53450;42.584;23.366;2023-09-07T02:34:08;21.38;;;13.15;;
66593;SDS011;53450;42.584;23.366;2023-09-07T02:36:35;15.77;;;13.30;;
66593;SDS011;53450;42.584;23.366;2023-09-07T02:39:05;25.83;;;13.48;;
66593;SDS011;53450;42.584;23.366;2023-09-07T02:41:32;18.50;;;13.65;;
66593;SDS011;53450;42.584;23.366;2023-09-07T02:43:57;19.35;;;13.02;;
66593;SDS011;53450;42.584;23.366;2023-09-07T02:46:23;16.42;;;13.27;;
66593;SDS011;53450;42.584;23.366;2023-09-07T02:48:49;16.80;;;12.15;;
66593;SDS011;53450;42.584;23.366;2023-09-07T02:51:14;16.83;;;12.68;;
66593;SDS011;53450;42.584;23.366;2023-09-07T02:53:40;25.13;;;13.60;;
66593;SDS011;53450;42.584;23.366;2023-09-07T02:56:06;16.10;;;12.30;;
66593;SDS011;53450;42.584;23.366;2023-09-07T02:58:33;16.83;;;12.43;;
66593;SDS011;53450;42.584;23.366;2023-09-07T03:00:59;20.50;;;14.65;;
66593;SDS011;53450;42.584;23.366;2023-09-07T03:03:25;17.27;;;13.80;;
66593;SDS011;53450;42.584;23.366;2023-09-07T03:05:51;16.77;;;13.05;;
66593;SDS011;53450;42.584;23.366;2023-09-07T03:08:17;16.38;;;12.48;;
66593;SDS011;53450;42.584;23.366;2023-09-07T03:10:42;23.63;;;13.40;;
66593;SDS011;53450;42.584;23.366;2023-09-07T03:13:09;21.63;;;13.65;;
66593;SDS011;53450;42.584;23.366;2023-09-07T03:15:37;19.05;;;13.90;;
66593;SDS011;53450;42.584;23.366;2023-09-07T03:18:07;19.15;;;12.52;;
66593;SDS011;53450;42.584;23.366;2023-09-07T03:20:33;20.58;;;12.98;;
66593;SDS011;53450;42.584;23.366;2023-09-07T03:23:00;15.93;;;12.57;;
66593;SDS011;53450;42.584;23.366;2023-09-07T03:25:25;17.25;;;12.00;;
66593;SDS011;53450;42.584;23.366;2023-09-07T03:27:51;14.32;;;11.60;;
66593;SDS011;53450;42.584;23.366;2023-09-07T03:30:17;14.85;;;12.65;;
66593;SDS011;53450;42.584;23.366;2023-09-07T03:32:45;15.30;;;11.82;;
66593;SDS011;53450;42.584;23.366;2023-09-07T03:35:13;18.08;;;12.55;;
66593;SDS011;53450;42.584;23.366;2023-09-07T03:37:41;15.38;;;13.40;;
66593;SDS011;53450;42.584;23.366;2023-09-07T03:40:08;16.17;;;12.35;;
66593;SDS011;53450;42.584;23.366;2023-09-07T03:42:35;23.73;;;13.45;;
66593;SDS011;53450;42.584;23.366;2023-09-07T03:45:02;23.52;;;14.45;;
66593;SDS011;53450;42.584;23.366;2023-09-07T03:47:29;20.35;;;13.85;;
66593;SDS011;53450;42.584;23.366;2023-09-07T03:49:56;16.63;;;13.30;;
66593;SDS011;53450;42.584;23.366;2023-09-07T03:52:25;18.05;;;13.38;;
66593;SDS011;53450;42.584;23.366;2023-09-07T03:54:54;18.88;;;12.55;;
66593;SDS011;53450;42.584;23.366;2023-09-07T03:57:21;12.95;;;10.98;;
66593;SDS011;53450;42.584;23.366;2023-09-07T03:59:48;19.98;;;11.93;;
66593;SDS011;53450;42.584;23.366;2023-09-07T04:02:14;21.35;;;12.00;;
66593;SDS011;53450;42.584;23.366;2023-09-07T04:04:40;14.93;;;12.68;;
66593;SDS011;53450;42.584;23.366;2023-09-07T04:07:06;16.05;;;12.25;;
66593;SDS011;53450;42.584;23.366;2023-09-07T04:09:31;16.02;;;11.52;;
66593;SDS011;53450;42.584;23.366;2023-09-07T04:11:57;23.83;;;12.02;;
66593;SDS011;53450;42.584;23.366;2023-09-07T04:14:23;20.45;;;12.18;;
66593;SDS011;53450;42.584;23.366;2023-09-07T04:16:48;13.35;;;10.98;;
66593;SDS011;53450;42.584;23.366;2023-09-07T04:19:16;15.77;;;11.80;;
66593;SDS011;53450;42.584;23.366;2023-09-07T04:21:41;16.88;;;12.45;;
66593;SDS011;53450;42.584;23.366;2023-09-07T04:24:10;18.35;;;12.95;;
66593;SDS011;53450;42.584;23.366;2023-09-07T04:26:37;14.23;;;12.15;;
66593;SDS011;53450;42.584;23.366;2023-09-07T04:29:03;22.10;;;11.63;;
66593;SDS011;53450;42.584;23.366;2023-09-07T04:31:29;13.02;;;11.35;;
66593;SDS011;53450;42.584;23.366;2023-09-07T04:33:55;18.13;;;13.30;;
66593;SDS011;53450;42.584;23.366;2023-09-07T04:36:20;14.73;;;11.48;;
66593;SDS011;53450;42.584;23.366;2023-09-07T04:38:46;21.20;;;13.15;;
66593;SDS011;53450;42.584;23.366;2023-09-07T04:41:13;15.48;;;11.23;;
66593;SDS011;53450;42.584;23.366;2023-09-07T04:43:39;19.67;;;11.85;;
66593;SDS011;53450;42.584;23.366;2023-09-07T04:46:09;20.77;;;11.70;;
66593;SDS011;53450;42.584;23.366;2023-09-07T04:48:35;14.30;;;11.63;;
66593;SDS011;53450;42.584;23.366;2023-09-07T04:51:01;18.00;;;12.00;;
66593;SDS011;53450;42.584;23.366;2023-09-07T04:53:29;15.45;;;12.95;;
66593;SDS011;53450;42.584;23.366;2023-09-07T04:55:57;12.07;;;10.82;;
66593;SDS011;53450;42.584;23.366;2023-09-07T04:58:23;15.98;;;10.35;;
66593;SDS011;53450;42.584;23.366;2023-09-07T05:00:49;14.20;;;10.75;;
66593;SDS011;53450;42.584;23.366;2023-09-07T05:03:15;17.50;;;9.40;;
66593;SDS011;53450;42.584;23.366;2023-09-07T05:05:41;23.55;;;10.30;;
66593;SDS011;53450;42.584;23.366;2023-09-07T05:08:09;15.43;;;9.23;;
66593;SDS011;53450;42.584;23.366;2023-09-07T05:10:35;11.43;;;8.23;;
66593;SDS011;53450;42.584;23.366;2023-09-07T05:13:02;15.55;;;8.10;;
66593;SDS011;53450;42.584;23.366;2023-09-07T05:15:28;14.73;;;7.80;;
66593;SDS011;53450;42.584;23.366;2023-09-07T05:17:54;11.30;;;7.70;;
66593;SDS011;53450;42.584;23.366;2023-09-07T05:20:20;13.82;;;8.27;;
66593;SDS011;53450;42.584;23.366;2023-09-07T05:22:47;12.90;;;8.15;;
66593;SDS011;53450;42.584;23.366;2023-09-07T05:25:13;13.02;;;7.60;;
66593;SDS011;53450;42.584;23.366;2023-09-07T05:27:39;11.00;;;7.47;;
66593;SDS011;53450;42.584;23.366;2023-09-07T05:30:07;10.07;;;7.85;;
66593;SDS011;53450;42.584;23.366;2023-09-07T05:32:36;9.23;;;7.10;;
66593;SDS011;53450;42.584;23.366;2023-09-07T05:35:01;8.90;;;6.80;;
66593;SDS011;53450;42.584;23.366;2023-09-07T05:37:27;8.10;;;6.63;;
66593;SDS011;53450;42.584;23.366;2023-09-07T05:39:53;9.50;;;6.25;;
66593;SDS011;53450;42.584;23.366;2023-09-07T05:42:18;11.57;;;6.93;;
66593;SDS011;53450;42.584;23.366;2023-09-07T05:44:45;11.35;;;7.75;;
66593;SDS011;53450;42.584;23.366;2023-09-07T05:47:10;11.90;;;7.00;;
66593;SDS011;53450;42.584;23.366;2023-09-07T05:49:36;11.70;;;7.45;;
66593;SDS011;53450;42.584;23.366;2023-09-07T05:52:02;14.25;;;7.32;;
66593;SDS011;53450;42.584;23.366;2023-09-07T05:54:28;10.07;;;6.57;;
66593;SDS011;53450;42.584;23.366;2023-09-07T05:56:54;12.80;;;6.68;;
66593;SDS011;53450;42.584;23.366;2023-09-07T05:59:45;9.52;;;6.80;;
66593;SDS011;53450;42.584;23.366;2023-09-07T06:02:11;8.23;;;6.53;;
66593;SDS011;53450;42.584;23.366;2023-09-07T06:04:36;15.43;;;6.97;;
66593;SDS011;53450;42.584;23.366;2023-09-07T06:07:05;9.38;;;6.22;;
66593;SDS011;53450;42.584;23.366;2023-09-07T06:09:34;10.05;;;6.28;;
66593;SDS011;53450;42.584;23.366;2023-09-07T06:12:03;8.77;;;6.78;;
66593;SDS011;53450;42.584;23.366;2023-09-07T06:14:32;10.70;;;5.88;;
66593;SDS011;53450;42.584;23.366;2023-09-07T06:16:57;10.07;;;7.15;;
66593;SDS011;53450;42.584;23.366;2023-09-07T06:19:23;8.50;;;6.47;;
66593;SDS011;53450;42.584;23.366;2023-09-07T06:21:51;11.23;;;6.38;;
66593;SDS011;53450;42.584;23.366;2023-09-07T06:24:17;8.95;;;6.53;;
66593;SDS011;53450;42.584;23.366;2023-09-07T06:26:42;10.48;;;6.55;;
66593;SDS011;53450;42.584;23.366;2023-09-07T06:29:09;13.88;;;6.50;;
66593;SDS011;53450;42.584;23.366;2023-09-07T06:31:35;10.38;;;6.30;;
66593;SDS011;53450;42.584;23.366;2023-09-07T06:34:01;14.32;;;6.35;;
66593;SDS011;53450;42.584;23.366;2023-09-07T06:36:29;10.00;;;7.05;;
66593;SDS011;53450;42.584;23.366;2023-09-07T06:38:55;9.13;;;6.32;;
66593;SDS011;53450;42.584;23.366;2023-09-07T06:41:21;11.45;;;7.10;;
66593;SDS011;53450;42.584;23.366;2023-09-07T06:43:47;11.45;;;6.90;;
66593;SDS011;53450;42.584;23.366;2023-09-07T06:46:13;9.57;;;6.78;;
66593;SDS011;53450;42.584;23.366;2023-09-07T06:48:39;7.10;;;6.07;;
66593;SDS011;53450;42.584;23.366;2023-09-07T06:51:05;9.13;;;6.43;;
66593;SDS011;53450;42.584;23.366;2023-09-07T06:53:33;10.57;;;6.45;;
66593;SDS011;53450;42.584;23.366;2023-09-07T06:55:59;7.63;;;5.70;;
66593;SDS011;53450;42.584;23.366;2023-09-07T06:58:26;12.07;;;6.60;;
66593;SDS011;53450;42.584;23.366;2023-09-07T07:00:58;12.32;;;6.57;;
66593;SDS011;53450;42.584;23.366;2023-09-07T07:03:30;11.25;;;6.32;;
66593;SDS011;53450;42.584;23.366;2023-09-07T07:05:56;10.70;;;6.25;;
66593;SDS011;53450;42.584;23.366;2023-09-07T07:08:25;10.93;;;5.65;;
66593;SDS011;53450;42.584;23.366;2023-09-07T07:10:50;8.75;;;6.15;;
66593;SDS011;53450;42.584;23.366;2023-09-07T07:13:18;11.38;;;5.78;;
66593;SDS011;53450;42.584;23.366;2023-09-07T07:15:45;15.32;;;7.20;;
66593;SDS011;53450;42.584;23.366;2023-09-07T07:18:12;10.13;;;6.82;;
66593;SDS011;53450;42.584;23.366;2023-09-07T07:20:38;10.45;;;6.57;;
66593;SDS011;53450;42.584;23.366;2023-09-07T07:23:04;8.82;;;6.63;;
66593;SDS011;53450;42.584;23.366;2023-09-07T07:25:33;9.48;;;6.60;;
66593;SDS011;53450;42.584;23.366;2023-09-07T07:28:00;12.13;;;6.47;;
66593;SDS011;53450;42.584;23.366;2023-09-07T07:30:36;8.30;;;6.03;;
66593;SDS011;53450;42.584;23.366;2023-09-07T07:33:05;9.27;;;6.05;;
66593;SDS011;53450;42.584;23.366;2023-09-07T07:35:35;12.55;;;6.18;;
66593;SDS011;53450;42.584;23.366;2023-09-07T07:38:05;7.40;;;6.50;;
66593;SDS011;53450;42.584;23.366;2023-09-07T07:40:33;35.20;;;7.05;;
66593;SDS011;53450;42.584;23.366;2023-09-07T07:42:59;14.27;;;7.20;;
66593;SDS011;53450;42.584;23.366;2023-09-07T07:45:25;6.78;;;6.03;;
66593;SDS011;53450;42.584;23.366;2023-09-07T07:48:16;10.18;;;6.03;;
66593;SDS011;53450;42.584;23.366;2023-09-07T07:50:43;10.15;;;6.68;;
66593;SDS011;53450;42.584;23.366;2023-09-07T07:53:12;10.32;;;6.53;;
66593;SDS011;53450;42.584;23.366;2023-09-07T07:55:40;16.92;;;6.45;;
66593;SDS011;53450;42.584;23.366;2023-09-07T07:58:10;14.02;;;6.63;;
66593;SDS011;53450;42.584;23.366;2023-09-07T08:00:38;7.75;;;5.68;;
66593;SDS011;53450;42.584;23.366;2023-09-07T08:03:07;10.00;;;6.38;;
66593;SDS011;53450;42.584;23.366;2023-09-07T08:05:35;8.82;;;6.28;;
66593;SDS011;53450;42.584;23.366;2023-09-07T08:08:04;8.43;;;5.43;;
66593;SDS011;53450;42.584;23.366;2023-09-07T08:10:36;8.23;;;5.40;;
66593;SDS011;53450;42.584;23.366;2023-09-07T08:13:04;14.45;;;4.93;;
66593;SDS011;53450;42.584;23.366;2023-09-07T08:15:34;11.35;;;4.97;;
66593;SDS011;53450;42.584;23.366;2023-09-07T08:18:01;6.45;;;5.18;;
66593;SDS011;53450;42.584;23.366;2023-09-07T08:20:27;12.30;;;6.05;;
66593;SDS011;53450;42.584;23.366;2023-09-07T08:22:55;6.30;;;4.72;;
66593;SDS011;53450;42.584;23.366;2023-09-07T08:25:26;9.20;;;4.55;;
66593;SDS011;53450;42.584;23.366;2023-09-07T08:27:54;5.78;;;4.45;;
66593;SDS011;53450;42.584;23.366;2023-09-07T08:30:30;14.00;;;4.50;;
66593;SDS011;53450;42.584;23.366;2023-09-07T08:32:59;8.02;;;4.47;;
66593;SDS011;53450;42.584;23.366;2023-09-07T08:35:29;12.00;;;4.53;;
66593;SDS011;53450;42.584;23.366;2023-09-07T08:37:55;11.38;;;4.18;;
66593;SDS011;53450;42.584;23.366;2023-09-07T08:40:23;11.05;;;4.57;;
66593;SDS011;53450;42.584;23.366;2023-09-07T08:42:52;9.20;;;4.35;;
66593;SDS011;53450;42.584;23.366;2023-09-07T08:45:25;5.75;;;4.00;;
66593;SDS011;53450;42.584;23.366;2023-09-07T08:50:18;9.20;;;4.82;;
66593;SDS011;53450;42.584;23.366;2023-09-07T08:52:44;8.80;;;4.72;;
66593;SDS011;53450;42.584;23.366;2023-09-07T08:55:14;13.07;;;4.25;;
66593;SDS011;53450;42.584;23.366;2023-09-07T08:58:06;5.45;;;4.30;;
66593;SDS011;53450;42.584;23.366;2023-09-07T09:00:57;5.78;;;4.22;;
66593;SDS011;53450;42.584;23.366;2023-09-07T09:03:23;8.23;;;4.07;;
66593;SDS011;53450;42.584;23.366;2023-09-07T09:05:50;6.35;;;4.68;;
66593;SDS011;53450;42.584;23.366;2023-09-07T09:08:16;10.23;;;4.40;;
66593;SDS011;53450;42.584;23.366;2023-09-07T09:10:47;13.20;;;4.55;;
66593;SDS011;53450;42.584;23.366;2023-09-07T09:13:13;8.73;;;4.38;;
66593;SDS011;53450;42.584;23.366;2023-09-07T09:15:39;7.95;;;3.95;;
66593;SDS011;53450;42.584;23.366;2023-09-07T09:18:09;6.68;;;4.10;;
66593;SDS011;53450;42.584;23.366;2023-09-07T09:20:38;5.65;;;3.88;;
66593;SDS011;53450;42.584;23.366;2023-09-07T09:23:05;11.50;;;4.00;;
66593;SDS011;53450;42.584;23.366;2023-09-07T09:25:32;6.32;;;4.03;;
66593;SDS011;53450;42.584;23.366;2023-09-07T09:28:00;7.05;;;4.00;;
66593;SDS011;53450;42.584;23.366;2023-09-07T09:30:26;9.50;;;4.35;;
66593;SDS011;53450;42.584;23.366;2023-09-07T09:32:52;9.80;;;4.18;;
66593;SDS011;53450;42.584;23.366;2023-09-07T09:35:19;7.55;;;4.07;;
66593;SDS011;53450;42.584;23.366;2023-09-07T09:37:46;4.72;;;3.60;;
66593;SDS011;53450;42.584;23.366;2023-09-07T09:40:14;8.23;;;4.07;;
66593;SDS011;53450;42.584;23.366;2023-09-07T09:42:44;13.15;;;4.50;;
66593;SDS011;53450;42.584;23.366;2023-09-07T09:45:12;8.98;;;3.97;;
66593;SDS011;53450;42.584;23.366;2023-09-07T09:47:43;6.68;;;3.95;;
66593;SDS011;53450;42.584;23.366;2023-09-07T09:50:10;8.30;;;3.88;;
66593;SDS011;53450;42.584;23.366;2023-09-07T09:52:39;5.78;;;4.45;;
66593;SDS011;53450;42.584;23.366;2023-09-07T09:55:05;4.97;;;3.33;;
66593;SDS011;53450;42.584;23.366;2023-09-07T09:57:41;9.82;;;4.32;;
66593;SDS011;53450;42.584;23.366;2023-09-07T10:00:11;4.45;;;4.03;;
66593;SDS011;53450;42.584;23.366;2023-09-07T10:05:26;10.45;;;4.18;;
66593;SDS011;53450;42.584;23.366;2023-09-07T10:07:52;8.18;;;3.75;;
66593;SDS011;53450;42.584;23.366;2023-09-07T10:10:24;4.93;;;3.83;;
66593;SDS011;53450;42.584;23.366;2023-09-07T10:12:53;4.32;;;3.92;;
66593;SDS011;53450;42.584;23.366;2023-09-07T10:15:22;9.35;;;3.95;;
66593;SDS011;53450;42.584;23.366;2023-09-07T10:17:49;9.40;;;4.22;;
66593;SDS011;53450;42.584;23.366;2023-09-07T10:20:19;6.10;;;4.00;;
66593;SDS011;53450;42.584;23.366;2023-09-07T10:22:48;6.97;;;3.70;;
66593;SDS011;53450;42.584;23.366;2023-09-07T10:25:22;7.75;;;3.67;;
66593;SDS011;53450;42.584;23.366;2023-09-07T10:27:54;7.10;;;3.80;;
66593;SDS011;53450;42.584;23.366;2023-09-07T10:30:19;5.07;;;3.40;;
66593;SDS011;53450;42.584;23.366;2023-09-07T10:32:49;4.88;;;3.55;;
66593;SDS011;53450;42.584;23.366;2023-09-07T10:35:15;5.72;;;3.90;;
66593;SDS011;53450;42.584;23.366;2023-09-07T10:37:43;9.57;;;4.15;;
66593;SDS011;53450;42.584;23.366;2023-09-07T10:40:11;7.75;;;3.92;;
66593;SDS011;53450;42.584;23.366;2023-09-07T10:42:37;6.05;;;3.80;;
66593;SDS011;53450;42.584;23.366;2023-09-07T10:45:13;9.30;;;3.95;;
66593;SDS011;53450;42.584;23.366;2023-09-07T10:47:42;11.38;;;3.90;;
66593;SDS011;53450;42.584;23.366;2023-09-07T10:50:12;4.97;;;3.78;;
66593;SDS011;53450;42.584;23.366;2023-09-07T10:52:41;13.90;;;4.43;;
66593;SDS011;53450;42.584;23.366;2023-09-07T10:55:11;8.93;;;4.07;;
66593;SDS011;53450;42.584;23.366;2023-09-07T10:57:48;6.20;;;4.20;;
66593;SDS011;53450;42.584;23.366;2023-09-07T11:00:14;7.10;;;4.07;;
66593;SDS011;53450;42.584;23.366;2023-09-07T11:02:40;7.47;;;3.67;;
66593;SDS011;53450;42.584;23.366;2023-09-07T11:05:07;9.25;;;4.45;;
66593;SDS011;53450;42.584;23.366;2023-09-07T11:07:33;12.45;;;4.82;;
66593;SDS011;53450;42.584;23.366;2023-09-07T11:10:00;7.97;;;4.43;;
66593;SDS011;53450;42.584;23.366;2023-09-07T11:12:25;6.80;;;4.60;;
66593;SDS011;53450;42.584;23.366;2023-09-07T11:14:51;12.07;;;4.70;;
66593;SDS011;53450;42.584;23.366;2023-09-07T11:17:18;10.77;;;4.90;;
66593;SDS011;53450;42.584;23.366;2023-09-07T11:19:51;10.68;;;5.28;;
66593;SDS011;53450;42.584;23.366;2023-09-07T11:22:20;24.35;;;5.50;;
66593;SDS011;53450;42.584;23.366;2023-09-07T11:24:51;11.45;;;5.13;;
66593;SDS011;53450;42.584;23.366;2023-09-07T11:27:42;8.25;;;4.80;;
66593;SDS011;53450;42.584;23.366;2023-09-07T11:30:33;6.38;;;5.00;;
66593;SDS011;53450;42.584;23.366;2023-09-07T11:33:24;7.32;;;5.70;;
66593;SDS011;53450;42.584;23.366;2023-09-07T11:35:52;5.28;;;4.78;;
66593;SDS011;53450;42.584;23.366;2023-09-07T11:38:21;7.50;;;4.70;;
66593;SDS011;53450;42.584;23.366;2023-09-07T11:40:47;6.38;;;4.80;;
66593;SDS011;53450;42.584;23.366;2023-09-07T11:43:14;7.93;;;4.07;;
66593;SDS011;53450;42.584;23.366;2023-09-07T11:45:41;6.00;;;3.90;;
66593;SDS011;53450;42.584;23.366;2023-09-07T11:48:09;11.55;;;4.50;;
66593;SDS011;53450;42.584;23.366;2023-09-07T11:50:38;4.63;;;3.60;;
66593;SDS011;53450;42.584;23.366;2023-09-07T12:00:32;4.22;;;3.58;;
66593;SDS011;53450;42.584;23.366;2023-09-07T12:06:39;7.00;;;4.20;;
66593;SDS011;53450;42.584;23.366;2023-09-07T12:09:31;11.85;;;3.88;;
66593;SDS011;53450;42.584;23.366;2023-09-07T12:12:45;9.90;;;4.10;;
66593;SDS011;53450;42.584;23.366;2023-09-07T12:19:22;7.45;;;4.05;;
66593;SDS011;53450;42.584;23.366;2023-09-07T12:25:44;10.75;;;4.03;;
66593;SDS011;53450;42.584;23.366;2023-09-07T12:34:36;7.88;;;3.92;;
66593;SDS011;53450;42.584;23.366;2023-09-07T12:38:16;67.07;;;7.60;;
66593;SDS011;53450;42.584;23.366;2023-09-07T12:41:12;13.32;;;4.80;;
66593;SDS011;53450;42.584;23.366;2023-09-07T12:55:10;36.85;;;5.40;;
66593;SDS011;53450;42.584;23.366;2023-09-07T12:58:26;19.73;;;4.30;;
66593;SDS011;53450;42.584;23.366;2023-09-07T13:00:51;318.65;;;17.98;;
66593;SDS011;53450;42.584;23.366;2023-09-07T13:03:17;6.70;;;4.05;;
66593;SDS011;53450;42.584;23.366;2023-09-07T13:05:46;13.20;;;4.25;;
66593;SDS011;53450;42.584;23.366;2023-09-07T13:08:12;41.75;;;4.82;;
66593;SDS011;53450;42.584;23.366;2023-09-07T13:10:38;11.68;;;4.10;;
66593;SDS011;53450;42.584;23.366;2023-09-07T13:13:05;61.35;;;5.55;;
66593;SDS011;53450;42.584;23.366;2023-09-07T13:19:11;14.70;;;4.28;;
66593;SDS011;53450;42.584;23.366;2023-09-07T13:21:51;7.53;;;3.45;;
66593;SDS011;53450;42.584;23.366;2023-09-07T13:24:28;7.55;;;4.20;;
66593;SDS011;53450;42.584;23.366;2023-09-07T13:26:59;10.00;;;3.95;;
66593;SDS011;53450;42.584;23.366;2023-09-07T13:29:56;4.78;;;3.90;;
66593;SDS011;53450;42.584;23.366;2023-09-07T13:32:53;37.92;;;5.82;;
66593;SDS011;53450;42.584;23.366;2023-09-07T13:35:37;18.60;;;5.38;;
66593;SDS011;53450;42.584;23.366;2023-09-07T13:38:11;9.77;;;3.92;;
66593;SDS011;53450;42.584;23.366;2023-09-07T13:40:54;13.63;;;4.07;;
66593;SDS011;53450;42.584;23.366;2023-09-07T13:43:47;11.02;;;3.75;;
66593;SDS011;53450;42.584;23.366;2023-09-07T13:46:23;7.47;;;3.78;;
66593;SDS011;53450;42.584;23.366;2023-09-07T13:48:52;6.07;;;3.65;;
66593;SDS011;53450;42.584;23.366;2023-09-07T13:51:28;12.85;;;4.20;;
66593;SDS011;53450;42.584;23.366;2023-09-07T13:53:57;89.03;;;9.57;;
66593;SDS011;53450;42.584;23.366;2023-09-07T13:56:25;48.78;;;6.32;;
66593;SDS011;53450;42.584;23.366;2023-09-07T13:58:58;13.25;;;3.78;;
66593;SDS011;53450;42.584;23.366;2023-09-07T14:01:37;8.32;;;3.70;;
66593;SDS011;53450;42.584;23.366;2023-09-07T14:04:13;15.23;;;4.55;;
66593;SDS011;53450;42.584;23.366;2023-09-07T14:06:41;6.13;;;3.85;;
66593;SDS011;53450;42.584;23.366;2023-09-07T14:09:07;3.97;;;3.35;;
66593;SDS011;53450;42.584;23.366;2023-09-07T14:11:35;9.02;;;3.97;;
66593;SDS011;53450;42.584;23.366;2023-09-07T14:14:03;17.88;;;4.00;;
66593;SDS011;53450;42.584;23.366;2023-09-07T14:16:29;5.65;;;4.03;;
66593;SDS011;53450;42.584;23.366;2023-09-07T14:18:58;8.60;;;4.10;;
66593;SDS011;53450;42.584;23.366;2023-09-07T14:21:29;5.35;;;3.92;;
66593;SDS011;53450;42.584;23.366;2023-09-07T14:23:57;6.90;;;4.00;;
66593;SDS011;53450;42.584;23.366;2023-09-07T14:26:33;5.47;;;4.20;;
66593;SDS011;53450;42.584;23.366;2023-09-07T14:29:06;5.60;;;4.10;;
66593;SDS011;53450;42.584;23.366;2023-09-07T14:31:35;8.33;;;4.23;;
66593;SDS011;53450;42.584;23.366;2023-09-07T14:34:06;62.42;;;6.95;;
66593;SDS011;53450;42.584;23.366;2023-09-07T14:36:38;8.77;;;3.80;;
66593;SDS011;53450;42.584;23.366;2023-09-07T14:39:11;8.95;;;3.58;;
66593;SDS011;53450;42.584;23.366;2023-09-07T14:41:37;6.80;;;4.18;;
66593;SDS011;53450;42.584;23.366;2023-09-07T14:44:05;14.40;;;5.07;;
66593;SDS011;53450;42.584;23.366;2023-09-07T14:46:35;34.17;;;21.55;;
66593;SDS011;53450;42.584;23.366;2023-09-07T14:49:01;4.90;;;3.45;;
66593;SDS011;53450;42.584;23.366;2023-09-07T14:51:34;12.77;;;4.80;;
66593;SDS011;53450;42.584;23.366;2023-09-07T14:54:12;11.05;;;4.00;;
66593;SDS011;53450;42.584;23.366;2023-09-07T14:56:38;8.27;;;3.75;;
66593;SDS011;53450;42.584;23.366;2023-09-07T14:59:05;6.05;;;4.05;;
66593;SDS011;53450;42.584;23.366;2023-09-07T15:01:31;4.63;;;3.90;;
66593;SDS011;53450;42.584;23.366;2023-09-07T15:03:59;5.50;;;3.97;;
66593;SDS011;53450;42.584;23.366;2023-09-07T15:06:25;18.42;;;7.30;;
66593;SDS011;53450;42.584;23.366;2023-09-07T15:08:53;17.50;;;4.28;;
66593;SDS011;53450;42.584;23.366;2023-09-07T15:11:22;16.33;;;9.55;;
66593;SDS011;53450;42.584;23.366;2023-09-07T15:13:48;13.50;;;5.07;;
66593;SDS011;53450;42.584;23.366;2023-09-07T15:16:16;47.10;;;4.93;;
66593;SDS011;53450;42.584;23.366;2023-09-07T15:18:55;140.85;;;9.80;;
66593;SDS011;53450;42.584;23.366;2023-09-07T15:21:23;5.65;;;4.75;;